Time;durP1;ratioP1;P1;durP2;ratioP2;P2;SDS_P1;SDS_P2;PMS_P1;PMS_P2;Temp;Humidity;BMP_temperature;BMP_pressure;BME280_temperature;BME280_humidity;BME280_pressure;Samples;Min_cycle;Max_cycle;Signal;HPM_P1;HPM_P2
2023/04/02 00:01:26;;;;;;;0.60;0.60;;;;;;;9.78;97.13;98472.00;5031730;28;20201;-64
2023/04/02 00:04:23;;;;;;;0.50;0.50;;;;;;;9.81;96.70;98476.16;5031210;28;20197;-64
2023/04/02 00:06:53;;;;;;;0.53;0.53;;;;;;;9.83;96.41;98475.19;5031724;28;20868;-64
2023/04/02 00:09:36;;;;;;;0.50;0.50;;;;;;;9.83;96.27;98484.59;5024937;28;20234;-64
2023/04/02 00:12:16;;;;;;;0.60;0.60;;;;;;;9.75;96.01;98479.81;5030841;28;20302;-63
2023/04/02 00:14:48;;;;;;;0.47;0.47;;;;;;;9.73;95.85;98479.00;5031627;28;20665;-63
2023/04/02 00:17:16;;;;;;;0.60;0.60;;;;;;;9.72;96.05;98479.94;5031455;28;20201;-65
2023/04/02 00:19:48;;;;;;;0.50;0.50;;;;;;;9.76;96.09;98493.41;5020218;28;20200;-64
2023/04/02 00:22:18;;;;;;;0.60;0.60;;;;;;;9.65;95.36;98478.50;5020389;28;20292;-65
2023/04/02 00:24:47;;;;;;;0.40;0.40;;;;;;;9.82;95.58;98501.66;5011720;28;20198;-65
2023/04/02 00:27:15;;;;;;;0.40;0.40;;;;;;;9.76;95.31;98485.72;5029950;28;20204;-64
2023/04/02 00:29:47;;;;;;;0.60;0.60;;;;;;;9.87;95.23;98491.25;5030938;28;20267;-65
2023/04/02 00:32:21;;;;;;;0.50;0.50;;;;;;;9.83;95.87;98494.81;5013345;28;20214;-65
2023/04/02 00:34:50;;;;;;;0.50;0.50;;;;;;;9.72;96.43;98491.88;5023240;28;20284;-65
2023/04/02 00:37:22;;;;;;;0.40;0.40;;;;;;;9.60;97.13;98489.81;5022788;28;20280;-65
2023/04/02 00:39:52;;;;;;;0.50;0.50;;;;;;;9.42;98.08;98489.69;5030968;28;20208;-64
2023/04/02 00:42:20;;;;;;;0.60;0.60;;;;;;;9.34;98.73;98481.47;5030995;28;20195;-64
2023/04/02 00:44:49;;;;;;;0.50;0.50;;;;;;;9.27;99.18;98490.25;5031046;28;20296;-64
2023/04/02 00:47:21;;;;;;;0.50;0.50;;;;;;;9.13;99.77;98487.44;5031005;28;20208;-65
2023/04/02 00:49:57;;;;;;;0.50;0.50;;;;;;;9.00;100.00;98481.13;5026502;28;20197;-65
2023/04/02 00:52:26;;;;;;;0.60;0.60;;;;;;;8.89;100.00;98483.25;5014218;28;20205;-65
2023/04/02 00:55:01;;;;;;;0.60;0.60;;;;;;;8.76;100.00;98476.94;5030698;28;20221;-65
2023/04/02 00:57:28;;;;;;;0.50;0.50;;;;;;;8.63;100.00;98480.84;5021502;28;20296;-64
2023/04/02 00:59:58;;;;;;;0.50;0.50;;;;;;;8.56;100.00;98477.69;5020853;28;20252;-64
2023/04/02 01:02:30;;;;;;;0.60;0.60;;;;;;;8.51;100.00;98473.63;5019071;28;20281;-64
2023/04/02 01:05:01;;;;;;;0.60;0.60;;;;;;;8.43;100.00;98463.72;5024786;28;20210;-64
2023/04/02 01:07:51;;;;;;;0.53;0.53;;;;;;;8.38;100.00;98463.03;5029593;28;20224;-64
2023/04/02 01:10:34;;;;;;;0.50;0.50;;;;;;;8.35;100.00;98461.41;5030487;28;20288;-64
2023/04/02 01:13:11;;;;;;;0.60;0.60;;;;;;;8.37;100.00;98462.19;5030734;28;20626;-64
2023/04/02 01:15:42;;;;;;;0.60;0.60;;;;;;;8.41;100.00;98466.31;5030619;28;20208;-64
2023/04/02 01:18:25;;;;;;;0.50;0.50;;;;;;;8.43;100.00;98474.72;5014818;28;20193;-64
2023/04/02 01:21:16;;;;;;;0.50;0.50;;;;;;;8.46;100.00;98475.53;5026878;28;20193;-64
2023/04/02 01:23:54;;;;;;;0.50;0.50;;;;;;;8.37;100.00;98472.41;5013754;28;20260;-64
2023/04/02 01:26:36;;;;;;;0.50;0.50;;;;;;;8.31;100.00;98477.72;5023188;28;20209;-64
2023/04/02 01:29:09;;;;;;;0.40;0.40;;;;;;;8.32;100.00;98486.22;5028963;28;20197;-64
2023/04/02 01:31:37;;;;;;;0.60;0.60;;;;;;;8.34;100.00;98479.34;5030275;28;20217;-64
2023/04/02 01:34:07;;;;;;;0.60;0.60;;;;;;;8.29;100.00;98476.97;5034172;28;20208;-64
2023/04/02 01:36:41;;;;;;;0.60;0.60;;;;;;;8.32;100.00;98487.06;5034318;28;20200;-64
2023/04/02 01:39:17;;;;;;;0.50;0.50;;;;;;;8.38;100.00;98484.28;5028501;28;20201;-64
2023/04/02 01:41:50;;;;;;;0.50;0.50;;;;;;;8.48;100.00;98478.84;5024215;28;20572;-64
2023/04/02 01:44:25;;;;;;;0.60;0.60;;;;;;;8.54;100.00;98481.16;5029058;28;20205;-64
2023/04/02 01:46:53;;;;;;;0.50;0.50;;;;;;;8.65;100.00;98490.13;5015563;28;20208;-64
2023/04/02 01:49:22;;;;;;;0.60;0.60;;;;;;;8.65;100.00;98479.06;5028388;28;20201;-64
2023/04/02 01:51:53;;;;;;;0.50;0.50;;;;;;;8.72;100.00;98495.84;5034135;28;20400;-64
2023/04/02 01:54:22;;;;;;;0.50;0.50;;;;;;;8.74;100.00;98483.84;5034251;28;20294;-64
2023/04/02 01:56:50;;;;;;;0.50;0.50;;;;;;;8.74;100.00;98471.91;5034062;28;20204;-64
2023/04/02 01:59:21;;;;;;;0.60;0.60;;;;;;;8.88;100.00;98502.06;5032279;28;20235;-64
2023/04/02 02:01:52;;;;;;;0.70;0.70;;;;;;;8.93;100.00;98503.53;5033919;28;20304;-64
2023/04/02 02:04:19;;;;;;;0.50;0.50;;;;;;;8.98;100.00;98497.41;5033974;28;20255;-64
2023/04/02 02:06:47;;;;;;;0.50;0.50;;;;;;;9.01;100.00;98500.69;5022162;28;20692;-64
2023/04/02 02:09:21;;;;;;;0.77;0.77;;;;;;;9.03;100.00;98504.00;5033990;28;20332;-64
2023/04/02 02:11:49;;;;;;;0.60;0.60;;;;;;;9.08;100.00;98497.00;5033345;28;20232;-64
2023/04/02 02:14:21;;;;;;;0.50;0.50;;;;;;;9.15;100.00;98495.88;5034201;28;20204;-64
2023/04/02 02:16:48;;;;;;;0.50;0.50;;;;;;;9.16;100.00;98491.59;5033818;28;20616;-64
2023/04/02 02:19:26;;;;;;;0.50;0.50;;;;;;;9.14;99.96;98488.28;5026208;28;20197;-64
2023/04/02 02:21:56;;;;;;;0.60;0.60;;;;;;;9.21;100.00;98493.06;5033346;28;20197;-64
2023/04/02 02:24:26;;;;;;;0.53;0.53;;;;;;;9.15;100.00;98490.75;5033769;28;20201;-64
2023/04/02 02:27:05;;;;;;;0.50;0.50;;;;;;;9.19;100.00;98482.06;5033578;28;20263;-64
2023/04/02 02:29:37;;;;;;;0.60;0.60;;;;;;;9.19;99.95;98494.84;5027996;28;20735;-64
2023/04/02 02:32:07;;;;;;;0.50;0.50;;;;;;;9.12;99.99;98490.03;5033127;28;20217;-64
2023/04/02 02:34:40;;;;;;;0.50;0.50;;;;;;;9.23;100.00;98498.97;5017737;28;20209;-64
2023/04/02 02:37:15;;;;;;;0.50;0.50;;;;;;;9.24;99.71;98494.69;5032409;28;20581;-64
2023/04/02 02:39:44;;;;;;;0.60;0.60;;;;;;;9.15;99.25;98475.41;5033267;28;20288;-64
2023/04/02 02:42:15;;;;;;;0.60;0.60;;;;;;;9.22;99.29;98484.50;5033225;28;20617;-63
2023/04/02 02:44:46;;;;;;;0.50;0.50;;;;;;;9.20;99.50;98481.19;5033380;28;20665;-64
2023/04/02 02:47:17;;;;;;;0.50;0.50;;;;;;;9.16;99.27;98482.19;5033064;28;20296;-64
2023/04/02 02:49:48;;;;;;;0.60;0.60;;;;;;;9.20;99.14;98488.88;5033282;28;20251;-64
2023/04/02 02:52:17;;;;;;;0.60;0.60;;;;;;;9.19;99.30;98486.34;5028538;28;20222;-64
2023/04/02 02:54:49;;;;;;;0.70;0.70;;;;;;;9.20;99.06;98488.88;5018819;28;20197;-64
2023/04/02 02:57:20;;;;;;;0.70;0.70;;;;;;;9.15;99.29;98498.41;5023645;28;20206;-64
2023/04/02 02:59:49;;;;;;;0.50;0.50;;;;;;;9.04;99.75;98492.06;5032206;28;20651;-64
2023/04/02 03:02:17;;;;;;;0.60;0.60;;;;;;;9.05;99.55;98494.56;5032620;28;20240;-64
2023/04/02 03:04:47;;;;;;;0.60;0.60;;;;;;;8.92;99.54;98483.13;5033214;28;20804;-64
2023/04/02 03:07:15;;;;;;;0.60;0.60;;;;;;;8.95;99.78;98490.69;5032571;28;20197;-64
2023/04/02 03:09:48;;;;;;;0.50;0.50;;;;;;;8.97;99.89;98491.47;5032390;28;20237;-64
2023/04/02 03:12:32;;;;;;;0.50;0.50;;;;;;;9.05;99.72;98504.78;5032406;28;20225;-64
2023/04/02 03:15:06;;;;;;;0.70;0.70;;;;;;;9.08;99.21;98499.53;5032994;28;20632;-64
2023/04/02 03:17:37;;;;;;;0.50;0.50;;;;;;;9.10;99.48;98502.91;5032993;28;20220;-64
2023/04/02 03:20:13;;;;;;;0.50;0.50;;;;;;;9.19;99.13;98506.81;5022780;28;20197;-64
2023/04/02 03:22:46;;;;;;;0.57;0.57;;;;;;;9.23;99.36;98509.19;5024381;28;20196;-64
2023/04/02 03:25:24;;;;;;;0.60;0.60;;;;;;;9.21;99.96;98502.50;5025463;28;20210;-63
2023/04/02 03:27:56;;;;;;;0.60;0.60;;;;;;;9.18;100.00;98512.81;5025152;28;20208;-64
2023/04/02 03:30:34;;;;;;;0.60;0.60;;;;;;;9.18;100.00;98511.09;5031596;28;20209;-64
2023/04/02 03:33:05;;;;;;;0.60;0.60;;;;;;;9.14;100.00;98514.69;5027000;28;20253;-64
2023/04/02 03:35:37;;;;;;;0.60;0.60;;;;;;;9.13;100.00;98528.34;5032088;28;20197;-64
2023/04/02 03:38:07;;;;;;;0.50;0.50;;;;;;;9.08;100.00;98520.00;5032366;28;20259;-64
2023/04/02 03:40:39;;;;;;;0.50;0.50;;;;;;;9.02;100.00;98519.41;5031895;28;20206;-64
2023/04/02 03:43:17;;;;;;;0.50;0.50;;;;;;;8.92;100.00;98527.41;5032123;28;20197;-64
2023/04/02 03:45:49;;;;;;;0.50;0.50;;;;;;;8.83;100.00;98514.16;5031936;28;20201;-64
2023/04/02 03:48:23;;;;;;;0.57;0.57;;;;;;;8.77;100.00;98506.72;5027307;28;20685;-64
2023/04/02 03:50:56;;;;;;;0.40;0.40;;;;;;;8.81;100.00;98521.88;5031912;28;20193;-64
2023/04/02 03:53:25;;;;;;;0.50;0.50;;;;;;;8.80;100.00;98514.25;5031926;28;20205;-64
2023/04/02 03:55:53;;;;;;;0.50;0.50;;;;;;;8.79;100.00;98515.97;5031143;28;20275;-64
2023/04/02 03:58:24;;;;;;;0.60;0.60;;;;;;;8.79;100.00;98513.44;5026770;28;20620;-64
2023/04/02 04:00:59;;;;;;;0.60;0.60;;;;;;;8.70;100.00;98497.59;5028418;28;20205;-64
2023/04/02 04:03:32;;;;;;;0.50;0.50;;;;;;;8.88;100.00;98514.81;5031774;28;20609;-64
2023/04/02 04:06:02;;;;;;;0.57;0.57;;;;;;;8.88;100.00;98507.16;5031660;28;20220;-64
2023/04/02 04:08:36;;;;;;;0.50;0.50;;;;;;;8.93;100.00;98516.31;5031455;28;20198;-64
2023/04/02 04:11:10;;;;;;;0.60;0.60;;;;;;;8.94;100.00;98506.94;5031398;28;20197;-64
2023/04/02 04:13:43;;;;;;;0.50;0.50;;;;;;;9.03;100.00;98516.78;5022806;28;20205;-63
2023/04/02 04:16:16;;;;;;;0.50;0.50;;;;;;;9.10;99.24;98518.22;5019893;28;20202;-64
2023/04/02 04:18:47;;;;;;;0.57;0.57;;;;;;;9.14;99.10;98524.91;5019241;28;20212;-63
2023/04/02 04:21:28;;;;;;;0.60;0.60;;;;;;;9.19;99.33;98523.00;5011730;28;20193;-64
2023/04/02 04:23:55;;;;;;;0.60;0.60;;;;;;;9.20;98.83;98529.78;5031494;28;20606;-64
2023/04/02 04:26:29;;;;;;;0.67;0.67;;;;;;;9.24;98.62;98536.41;5031750;28;20224;-64
2023/04/02 04:29:08;;;;;;;0.60;0.60;;;;;;;9.27;99.26;98541.41;5027182;28;20198;-64
2023/04/02 04:31:45;;;;;;;0.63;0.63;;;;;;;9.30;99.31;98546.44;5025829;28;20228;-64
2023/04/02 04:34:17;;;;;;;0.43;0.43;;;;;;;9.35;99.09;98543.69;5020334;28;20213;-64
2023/04/02 04:36:53;;;;;;;0.60;0.60;;;;;;;9.40;99.35;98537.47;5019440;28;20207;-63
2023/04/02 04:39:28;;;;;;;0.50;0.50;;;;;;;9.50;99.40;98546.47;5026258;28;20619;-64
2023/04/02 04:41:58;;;;;;;0.53;0.53;;;;;;;9.59;98.94;98549.56;5031140;28;20283;-64
2023/04/02 04:44:34;;;;;;;0.50;0.50;;;;;;;9.58;98.95;98555.56;5031333;28;20205;-64
2023/04/02 04:47:07;;;;;;;0.60;0.60;;;;;;;9.65;98.97;98560.41;5030772;28;20197;-64
2023/04/02 04:49:41;;;;;;;0.57;0.57;;;;;;;9.60;99.65;98543.53;5026735;28;20616;-64
2023/04/02 04:52:13;;;;;;;0.50;0.50;;;;;;;9.58;99.33;98542.78;5021624;28;20280;-64
2023/04/02 04:54:41;;;;;;;0.60;0.60;;;;;;;9.65;99.96;98557.00;5019590;28;20202;-64
2023/04/02 04:57:22;;;;;;;0.60;0.60;;;;;;;9.68;100.00;98557.72;5017289;28;20211;-64
2023/04/02 04:59:56;;;;;;;0.80;0.80;;;;;;;9.72;100.00;98563.53;5023921;28;20300;-64
2023/04/02 05:02:30;;;;;;;0.60;0.60;;;;;;;9.76;100.00;98554.81;5023564;28;20324;-64
2023/04/02 05:04:56;;;;;;;0.50;0.50;;;;;;;9.78;100.00;98558.19;5021036;28;20335;-63
2023/04/02 05:07:28;;;;;;;0.40;0.40;;;;;;;9.73;100.00;98544.72;5023900;28;20197;-64
2023/04/02 05:09:59;;;;;;;0.60;0.60;;;;;;;9.87;100.00;98562.91;5020054;28;20198;-64
2023/04/02 05:12:33;;;;;;;0.50;0.50;;;;;;;9.92;100.00;98568.66;5023608;28;20316;-64
2023/04/02 05:15:04;;;;;;;0.60;0.60;;;;;;;9.89;100.00;98567.06;5017658;28;20201;-64
2023/04/02 05:17:38;;;;;;;0.50;0.50;;;;;;;9.89;100.00;98561.13;5014102;28;20686;-64
2023/04/02 05:20:15;;;;;;;0.67;0.67;;;;;;;9.86;100.00;98571.47;5030526;28;20196;-63
2023/04/02 05:22:49;;;;;;;0.50;0.50;;;;;;;9.80;100.00;98567.44;5019428;28;20260;-64
2023/04/02 05:25:21;;;;;;;0.70;0.70;;;;;;;9.78;100.00;98569.25;5018774;28;20194;-64
2023/04/02 05:27:54;;;;;;;0.50;0.50;;;;;;;9.75;100.00;98568.53;5017541;28;20628;-64
2023/04/02 05:30:45;;;;;;;0.60;0.60;;;;;;;9.76;100.00;98571.03;5026877;28;20213;-64
2023/04/02 05:33:22;;;;;;;0.67;0.67;;;;;;;9.80;100.00;98571.72;5018401;28;20272;-63
2023/04/02 05:35:54;;;;;;;0.50;0.50;;;;;;;9.85;100.00;98567.28;5025157;28;20292;-64
2023/04/02 05:38:23;;;;;;;0.60;0.60;;;;;;;9.94;99.62;98574.59;5029827;28;20212;-63
2023/04/02 05:40:58;;;;;;;0.70;0.70;;;;;;;10.07;99.98;98573.19;5024619;28;20202;-60
2023/04/02 05:43:26;;;;;;;0.60;0.60;;;;;;;10.29;100.00;98576.53;5030271;28;20258;-60
2023/04/02 05:45:57;;;;;;;0.50;0.50;;;;;;;10.50;99.93;98574.81;5030581;28;20247;-60
2023/04/02 05:48:32;;;;;;;0.43;0.43;;;;;;;10.72;97.86;98569.59;5030393;28;20209;-60
2023/04/02 05:51:00;;;;;;;0.60;0.60;;;;;;;11.04;96.65;98571.53;5020382;28;20197;-61
2023/04/02 05:53:30;;;;;;;0.50;0.50;;;;;;;11.24;95.45;98581.75;5015390;28;20605;-61
2023/04/02 05:56:02;;;;;;;0.40;0.40;;;;;;;11.37;93.95;98582.81;5021734;28;20662;-60
2023/04/02 05:58:34;;;;;;;0.70;0.70;;;;;;;11.49;93.50;98578.84;5013084;28;20256;-61
2023/04/02 06:01:10;;;;;;;0.40;0.40;;;;;;;11.62;93.02;98591.94;5025424;28;20642;-60
2023/04/02 06:03:46;;;;;;;0.40;0.40;;;;;;;11.73;91.33;98592.31;5030075;28;20695;-61
2023/04/02 06:06:18;;;;;;;0.60;0.60;;;;;;;11.82;91.05;98591.88;5030577;28;20695;-60
2023/04/02 06:08:52;;;;;;;0.40;0.40;;;;;;;11.95;90.80;98593.78;5029243;28;20661;-61
2023/04/02 06:11:25;;;;;;;0.50;0.50;;;;;;;12.01;90.26;98597.78;5026074;28;20233;-61
2023/04/02 06:13:52;;;;;;;0.60;0.60;;;;;;;11.99;90.69;98591.88;5028942;28;20255;-60
2023/04/02 06:16:23;;;;;;;0.50;0.50;;;;;;;12.05;90.42;98600.09;5016505;28;20268;-60
2023/04/02 06:18:51;;;;;;;0.60;0.60;;;;;;;12.10;89.87;98607.59;5023955;28;20237;-60
2023/04/02 06:21:21;;;;;;;1.07;1.07;;;;;;;12.10;90.09;98605.88;5029602;28;20201;-61
2023/04/02 06:23:53;;;;;;;0.43;0.43;;;;;;;12.06;91.17;98606.09;5032073;28;20686;-61
2023/04/02 06:26:25;;;;;;;0.50;0.50;;;;;;;11.99;91.26;98589.28;5023422;28;20201;-62
2023/04/02 06:28:57;;;;;;;0.53;0.53;;;;;;;12.14;92.50;98613.41;5028151;28;20206;-61
2023/04/02 06:31:30;;;;;;;0.40;0.40;;;;;;;12.16;93.07;98620.16;5033309;28;20759;-61
2023/04/02 06:33:58;;;;;;;0.60;0.60;;;;;;;12.22;93.59;98621.56;5033065;28;20217;-60
2023/04/02 06:36:27;;;;;;;0.60;0.60;;;;;;;12.25;93.50;98627.41;5033521;28;20205;-61
2023/04/02 06:38:57;;;;;;;0.40;0.40;;;;;;;12.34;93.72;98624.38;5029630;28;20213;-61
2023/04/02 06:41:25;;;;;;;0.70;0.70;;;;;;;12.40;92.45;98630.97;5032932;28;20312;-61
2023/04/02 06:43:55;;;;;;;0.40;0.40;;;;;;;12.44;90.53;98633.28;5031920;28;20219;-61
2023/04/02 06:46:29;;;;;;;0.50;0.50;;;;;;;12.47;89.59;98632.31;5023899;28;20208;-60
2023/04/02 06:49:05;;;;;;;0.40;0.40;;;;;;;12.50;90.96;98632.16;5026940;28;20206;-61
2023/04/02 06:51:33;;;;;;;0.40;0.40;;;;;;;12.56;89.72;98626.72;5028609;28;20205;-61
2023/04/02 06:54:00;;;;;;;0.50;0.50;;;;;;;12.64;89.67;98633.13;5030674;28;20252;-61
2023/04/02 06:56:39;;;;;;;0.50;0.50;;;;;;;12.71;89.52;98638.78;5029026;28;20201;-61
2023/04/02 06:59:06;;;;;;;0.60;0.60;;;;;;;12.78;89.19;98635.00;5031668;28;20554;-61
2023/04/02 07:01:39;;;;;;;0.57;0.57;;;;;;;12.83;89.52;98639.88;5031427;28;20774;-61
2023/04/02 07:04:07;;;;;;;0.40;0.40;;;;;;;12.89;88.56;98642.97;5030302;28;20670;-61
2023/04/02 07:06:34;;;;;;;0.40;0.40;;;;;;;12.92;89.02;98629.16;5029600;28;20209;-61
2023/04/02 07:09:01;;;;;;;0.57;0.57;;;;;;;12.98;90.45;98639.97;5031872;28;20209;-61
2023/04/02 07:11:28;;;;;;;0.60;0.60;;;;;;;13.05;90.25;98638.69;5031644;28;20197;-61
2023/04/02 07:13:55;;;;;;;0.50;0.50;;;;;;;13.12;87.90;98644.41;5028285;28;20225;-61
2023/04/02 07:16:24;;;;;;;0.70;0.70;;;;;;;13.16;88.01;98638.19;5028146;28;20201;-61
2023/04/02 07:18:52;;;;;;;0.43;0.43;;;;;;;13.21;87.22;98636.22;5025902;28;20237;-60
2023/04/02 07:21:20;;;;;;;0.50;0.50;;;;;;;13.25;87.40;98642.84;5020800;28;20198;-60
2023/04/02 07:23:47;;;;;;;0.60;0.60;;;;;;;13.27;87.59;98635.06;5029553;28;20214;-61
2023/04/02 07:26:16;;;;;;;0.70;0.70;;;;;;;13.41;85.32;98646.25;5026472;28;20216;-61
2023/04/02 07:28:44;;;;;;;0.50;0.50;;;;;;;13.54;85.09;98655.00;5020336;28;20703;-61
2023/04/02 07:31:16;;;;;;;0.70;0.70;;;;;;;13.58;85.93;98632.47;5020538;28;20263;-61
2023/04/02 07:33:44;;;;;;;0.50;0.50;;;;;;;13.93;84.37;98653.72;5028234;28;20314;-61
2023/04/02 07:36:15;;;;;;;0.53;0.53;;;;;;;14.12;81.46;98649.19;5022563;28;20202;-60
2023/04/02 07:38:44;;;;;;;0.60;0.60;;;;;;;14.24;78.48;98655.41;5023665;28;20210;-61
2023/04/02 07:41:11;;;;;;;0.50;0.50;;;;;;;14.44;82.46;98643.06;5015850;28;20209;-61
2023/04/02 07:43:38;;;;;;;0.60;0.60;;;;;;;14.52;82.97;98647.78;5021600;28;20206;-61
2023/04/02 07:46:06;;;;;;;0.63;0.63;;;;;;;14.54;82.07;98635.66;5032355;28;20655;-65
2023/04/02 07:48:33;;;;;;;0.50;0.50;;;;;;;14.68;78.64;98661.44;5017398;28;20221;-66
2023/04/02 07:51:02;;;;;;;0.50;0.50;;;;;;;14.73;78.59;98661.19;5017368;28;20209;-65
2023/04/02 07:53:31;;;;;;;0.40;0.40;;;;;;;14.75;78.66;98657.59;5023048;28;20450;-66
2023/04/02 07:56:01;;;;;;;0.43;0.43;;;;;;;14.79;77.01;98627.28;5013393;28;20203;-66
2023/04/02 07:58:29;;;;;;;0.50;0.50;;;;;;;15.03;77.62;98646.47;5027692;28;20204;-66
2023/04/02 08:00:56;;;;;;;0.60;0.60;;;;;;;15.15;77.86;98645.75;5012655;28;20206;-66
2023/04/02 08:03:23;;;;;;;0.50;0.50;;;;;;;15.14;78.15;98649.22;5024933;28;20232;-66
2023/04/02 08:05:51;;;;;;;0.60;0.60;;;;;;;15.10;77.94;98638.25;5021719;28;20259;-66
2023/04/02 08:08:18;;;;;;;0.67;0.67;;;;;;;15.25;76.57;98646.81;5029258;28;20197;-66
2023/04/02 08:10:45;;;;;;;0.60;0.60;;;;;;;15.46;77.76;98648.09;5030770;28;20204;-66
2023/04/02 08:13:15;;;;;;;0.77;0.77;;;;;;;15.78;74.48;98643.53;5031318;28;20227;-66
2023/04/02 08:15:42;;;;;;;0.50;0.50;;;;;;;16.06;72.97;98650.34;5031061;28;20747;-66
2023/04/02 08:18:09;;;;;;;0.60;0.60;;;;;;;16.29;75.16;98642.75;5029125;28;20630;-66
2023/04/02 08:20:35;;;;;;;0.40;0.40;;;;;;;16.50;70.10;98661.22;5030895;28;20200;-66
2023/04/02 08:23:03;;;;;;;0.60;0.60;;;;;;;16.58;69.32;98638.28;5031307;28;20197;-66
2023/04/02 08:25:30;;;;;;;0.50;0.50;;;;;;;16.83;70.23;98649.59;5031873;28;20247;-66
2023/04/02 08:27:56;;;;;;;0.60;0.60;;;;;;;16.99;69.50;98642.44;5031148;28;20289;-66
2023/04/02 08:30:25;;;;;;;0.43;0.43;;;;;;;17.29;69.56;98635.13;5031860;28;20607;-66
2023/04/02 08:32:52;;;;;;;0.70;0.70;;;;;;;17.55;64.58;98635.91;5029272;28;20213;-67
2023/04/02 08:35:18;;;;;;;0.50;0.50;;;;;;;17.67;64.19;98619.53;5030872;28;20696;-66
2023/04/02 08:37:45;;;;;;;0.40;0.40;;;;;;;17.91;62.87;98632.50;5031297;28;20264;-65
2023/04/02 08:40:22;;;;;;;1.40;1.40;;;;;;;18.15;59.92;98641.09;5031511;28;20281;-66
2023/04/02 08:43:02;;;;;;;0.50;0.50;;;;;;;18.36;60.37;98634.31;5030908;28;20225;-66
2023/04/02 08:45:44;;;;;;;0.50;0.50;;;;;;;18.52;59.02;98634.88;5021917;28;20652;-66
2023/04/02 08:48:13;;;;;;;0.50;0.50;;;;;;;18.70;58.83;98637.88;5029771;28;20247;-66
2023/04/02 08:50:41;;;;;;;0.53;0.53;;;;;;;18.69;57.23;98637.03;5030841;28;20193;-66
2023/04/02 08:53:14;;;;;;;0.50;0.50;;;;;;;18.61;58.63;98629.00;5021759;28;20221;-66
2023/04/02 08:55:46;;;;;;;0.53;0.53;;;;;;;18.68;58.60;98630.19;5021727;28;20198;-67
2023/04/02 08:58:26;;;;;;;0.40;0.40;;;;;;;18.88;58.57;98634.72;5031193;28;20743;-66
2023/04/02 09:00:55;;;;;;;0.50;0.50;;;;;;;18.94;59.18;98617.00;5029428;28;20573;-66
2023/04/02 09:03:28;;;;;;;0.53;0.53;;;;;;;19.19;60.97;98614.19;5022414;28;20712;-66
2023/04/02 09:05:56;;;;;;;0.40;0.40;;;;;;;19.49;61.38;98619.59;5019051;28;20208;-66
2023/04/02 09:08:25;;;;;;;0.47;0.47;;;;;;;19.58;58.64;98618.84;5030845;28;20206;-66
2023/04/02 09:10:58;;;;;;;0.40;0.40;;;;;;;19.76;57.41;98614.81;5030969;28;20265;-66
2023/04/02 09:13:27;;;;;;;0.50;0.50;;;;;;;19.89;53.90;98615.47;5030879;28;20247;-67
2023/04/02 09:16:02;;;;;;;0.40;0.40;;;;;;;20.06;53.30;98605.50;5024277;28;20206;-66
2023/04/02 09:18:31;;;;;;;0.50;0.50;;;;;;;20.18;53.59;98620.09;5021604;28;20200;-66
2023/04/02 09:20:58;;;;;;;0.40;0.40;;;;;;;20.17;51.15;98592.41;5022437;28;20205;-66
2023/04/02 09:23:27;;;;;;;0.53;0.53;;;;;;;20.33;53.97;98598.03;5021225;28;20574;-66
2023/04/02 09:25:54;;;;;;;0.40;0.40;;;;;;;20.36;52.09;98606.41;5026086;28;20213;-66
2023/04/02 09:28:22;;;;;;;0.40;0.40;;;;;;;20.42;52.19;98607.69;5012143;28;20678;-66
2023/04/02 09:31:03;;;;;;;0.40;0.40;;;;;;;20.55;54.68;98603.09;5028909;28;20197;-66
2023/04/02 09:33:44;;;;;;;0.40;0.40;;;;;;;20.67;52.78;98612.53;5012516;28;20227;-67
2023/04/02 09:36:26;;;;;;;0.50;0.50;;;;;;;20.79;53.98;98606.28;5020141;28;20294;-66
2023/04/02 09:39:05;;;;;;;0.50;0.50;;;;;;;20.86;48.98;98604.81;5028005;28;20657;-67
2023/04/02 09:41:32;;;;;;;0.30;0.30;;;;;;;20.98;51.65;98594.28;5022548;28;20245;-66
2023/04/02 09:44:13;;;;;;;0.20;0.20;;;;;;;21.20;51.11;98588.91;5027369;28;20197;-66
2023/04/02 09:46:53;;;;;;;0.30;0.30;;;;;;;21.38;49.39;98582.94;5030520;28;20201;-66
2023/04/02 09:49:23;;;;;;;0.30;0.30;;;;;;;21.40;47.19;98585.41;5029767;28;20224;-66
2023/04/02 09:52:09;;;;;;;0.30;0.30;;;;;;;21.35;45.99;98582.38;5017629;28;20198;-66
2023/04/02 09:54:40;;;;;;;0.40;0.40;;;;;;;21.31;47.63;98567.97;5014447;28;20210;-66
2023/04/02 09:57:22;;;;;;;0.40;0.40;;;;;;;21.40;45.42;98583.63;5030719;28;20204;-66
2023/04/02 10:00:11;;;;;;;0.30;0.30;;;;;;;21.61;46.77;98583.53;5021719;28;20229;-66
2023/04/02 10:02:40;;;;;;;0.40;0.40;;;;;;;21.59;45.40;98579.38;5022645;28;20734;-66
2023/04/02 10:05:18;;;;;;;0.40;0.40;;;;;;;21.79;45.18;98575.84;5022639;28;20198;-66
2023/04/02 10:07:47;;;;;;;0.20;0.20;;;;;;;21.77;41.43;98568.16;5031054;28;20233;-66
2023/04/02 10:10:23;;;;;;;0.50;0.50;;;;;;;21.77;40.58;98573.38;5026436;28;20260;-66
2023/04/02 10:12:57;;;;;;;0.27;0.27;;;;;;;21.81;40.08;98577.34;5022584;28;20206;-66
2023/04/02 10:15:32;;;;;;;0.33;0.33;;;;;;;21.83;40.42;98561.56;5022518;28;20241;-66
2023/04/02 10:18:07;;;;;;;0.40;0.40;;;;;;;21.86;39.01;98572.56;5027654;28;20196;-66
2023/04/02 10:20:38;;;;;;;0.20;0.20;;;;;;;21.91;40.13;98565.16;5033575;28;20673;-66
2023/04/02 10:23:05;;;;;;;0.40;0.40;;;;;;;21.95;41.86;98556.09;5033767;28;20217;-66
2023/04/02 10:25:42;;;;;;;0.33;0.33;;;;;;;22.05;39.78;98556.09;5033698;28;20201;-66
2023/04/02 10:28:19;;;;;;;0.37;0.37;;;;;;;22.02;37.17;98558.16;5014316;28;20194;-66
2023/04/02 10:30:54;;;;;;;0.40;0.40;;;;;;;21.97;39.09;98554.16;5030703;28;20201;-67
2023/04/02 10:33:27;;;;;;;0.33;0.33;;;;;;;21.89;39.07;98555.84;5026802;28;20221;-67
2023/04/02 10:36:01;;;;;;;0.30;0.30;;;;;;;21.73;38.01;98556.34;5032610;28;20228;-66
2023/04/02 10:38:37;;;;;;;0.20;0.20;;;;;;;21.79;37.10;98553.19;5033788;28;20639;-66
2023/04/02 10:41:16;;;;;;;0.40;0.40;;;;;;;21.90;40.04;98545.28;5028304;28;20224;-66
2023/04/02 10:44:18;;;;;;;0.30;0.30;;;;;;;21.86;37.26;98551.69;5023292;28;20207;-66
2023/04/02 10:46:54;;;;;;;0.47;0.47;;;;;;;21.72;37.30;98553.88;5022458;28;20208;-66
2023/04/02 10:49:30;;;;;;;0.50;0.50;;;;;;;21.73;39.81;98556.34;5018156;28;20203;-66
2023/04/02 10:52:02;;;;;;;0.30;0.30;;;;;;;21.82;39.38;98541.66;5029302;28;20716;-66
2023/04/02 10:54:45;;;;;;;0.40;0.40;;;;;;;21.92;40.68;98530.28;5019571;28;20271;-66
2023/04/02 10:57:26;;;;;;;0.30;0.30;;;;;;;22.07;38.65;98528.06;5025230;28;20725;-66
2023/04/02 10:59:57;;;;;;;0.30;0.30;;;;;;;22.04;39.64;98530.13;5024299;28;20215;-66
2023/04/02 11:02:32;;;;;;;0.30;0.30;;;;;;;21.86;39.53;98515.16;5033382;28;20229;-66
2023/04/02 11:05:05;;;;;;;0.40;0.40;;;;;;;21.98;37.22;98529.72;5031332;28;20189;-66
2023/04/02 11:07:52;;;;;;;0.30;0.30;;;;;;;21.87;36.87;98529.03;5033146;28;20500;-66
2023/04/02 11:10:20;;;;;;;0.33;0.33;;;;;;;22.02;38.56;98519.00;5013808;28;20233;-67
2023/04/02 11:12:54;;;;;;;0.30;0.30;;;;;;;22.03;36.54;98505.84;5019984;28;20205;-66
2023/04/02 11:15:22;;;;;;;0.30;0.30;;;;;;;22.17;38.70;98531.50;5024082;28;20300;-66
2023/04/02 11:17:49;;;;;;;0.40;0.40;;;;;;;22.20;37.52;98527.75;5032965;28;20696;-66
2023/04/02 11:20:43;;;;;;;0.30;0.30;;;;;;;22.22;37.96;98526.69;5032888;28;20263;-66
2023/04/02 11:23:12;;;;;;;0.30;0.30;;;;;;;22.16;36.38;98527.25;5032643;28;20208;-66
2023/04/02 11:25:40;;;;;;;0.40;0.40;;;;;;;22.24;36.08;98534.38;5031385;28;20205;-67
2023/04/02 11:28:20;;;;;;;0.37;0.37;;;;;;;22.27;35.95;98518.41;5024379;28;20222;-67
2023/04/02 11:30:48;;;;;;;0.40;0.40;;;;;;;22.34;37.00;98522.94;5024623;28;20193;-65
2023/04/02 11:33:39;;;;;;;0.20;0.20;;;;;;;22.29;35.87;98512.13;5021997;28;20213;-66
2023/04/02 11:36:49;;;;;;;0.30;0.30;;;;;;;22.11;35.00;98512.94;5032265;28;20686;-66
2023/04/02 11:39:52;;;;;;;0.43;0.43;;;;;;;22.08;35.19;98513.22;5028690;28;20202;-66
2023/04/02 11:42:30;;;;;;;0.30;0.30;;;;;;;22.07;36.99;98501.97;5032100;28;20204;-66
2023/04/02 11:45:01;;;;;;;0.40;0.40;;;;;;;21.92;35.14;98509.41;5024085;28;20201;-66
2023/04/02 11:47:29;;;;;;;0.43;0.43;;;;;;;21.94;34.79;98501.44;5016380;28;20212;-66
2023/04/02 11:50:02;;;;;;;0.30;0.30;;;;;;;22.04;35.83;98511.84;5024109;28;20205;-66
2023/04/02 11:52:35;;;;;;;0.30;0.30;;;;;;;21.96;34.06;98495.13;5031122;28;20263;-66
2023/04/02 11:55:23;;;;;;;0.40;0.40;;;;;;;22.12;35.12;98493.72;5032299;28;20224;-67
2023/04/02 11:58:25;;;;;;;0.30;0.30;;;;;;;22.17;37.49;98491.50;5025781;28;20303;-66
2023/04/02 12:01:44;;;;;;;0.30;0.30;;;;;;;22.23;34.62;98490.97;5030922;28;20200;-66